sensor_id;sensor_type;location;lat;lon;timestamp;P1;durP1;ratioP1;P2;durP2;ratioP2
5209;SDS011;2624;48.048;11.706;2022-10-26T00:02:26;0.87;;;0.87;;
5209;SDS011;2624;48.048;11.706;2022-10-26T00:07:30;1.30;;;1.13;;
5209;SDS011;2624;48.048;11.706;2022-10-26T00:12:31;3.50;;;1.03;;
5209;SDS011;2624;48.048;11.706;2022-10-26T00:17:33;1.10;;;1.10;;
5209;SDS011;2624;48.048;11.706;2022-10-26T00:22:36;1.60;;;0.87;;
5209;SDS011;2624;48.048;11.706;2022-10-26T00:27:38;0.90;;;0.90;;
5209;SDS011;2624;48.048;11.706;2022-10-26T00:32:40;0.93;;;0.80;;
5209;SDS011;2624;48.048;11.706;2022-10-26T00:37:43;1.13;;;1.13;;
5209;SDS011;2624;48.048;11.706;2022-10-26T00:42:45;3.47;;;0.90;;
5209;SDS011;2624;48.048;11.706;2022-10-26T00:47:48;0.90;;;0.90;;
5209;SDS011;2624;48.048;11.706;2022-10-26T00:52:55;2.33;;;1.10;;
5209;SDS011;2624;48.048;11.706;2022-10-26T00:57:59;2.83;;;0.80;;
5209;SDS011;2624;48.048;11.706;2022-10-26T01:03:04;1.27;;;1.17;;
5209;SDS011;2624;48.048;11.706;2022-10-26T01:08:09;4.80;;;1.00;;
5209;SDS011;2624;48.048;11.706;2022-10-26T01:13:11;0.70;;;0.70;;
5209;SDS011;2624;48.048;11.706;2022-10-26T01:18:16;0.97;;;0.87;;
5209;SDS011;2624;48.048;11.706;2022-10-26T01:23:28;1.03;;;0.80;;
5209;SDS011;2624;48.048;11.706;2022-10-26T01:28:39;1.73;;;1.07;;
5209;SDS011;2624;48.048;11.706;2022-10-26T01:33:56;1.13;;;0.67;;
5209;SDS011;2624;48.048;11.706;2022-10-26T01:39:07;3.50;;;0.80;;
5209;SDS011;2624;48.048;11.706;2022-10-26T01:44:16;6.03;;;1.03;;
5209;SDS011;2624;48.048;11.706;2022-10-26T01:49:24;0.80;;;0.80;;
5209;SDS011;2624;48.048;11.706;2022-10-26T01:54:28;3.03;;;0.90;;
5209;SDS011;2624;48.048;11.706;2022-10-26T01:59:33;0.77;;;0.67;;
5209;SDS011;2624;48.048;11.706;2022-10-26T02:04:57;1.53;;;0.77;;
5209;SDS011;2624;48.048;11.706;2022-10-26T02:10:11;2.10;;;0.80;;
5209;SDS011;2624;48.048;11.706;2022-10-26T02:15:21;1.40;;;1.30;;
5209;SDS011;2624;48.048;11.706;2022-10-26T02:20:30;2.90;;;1.83;;
5209;SDS011;2624;48.048;11.706;2022-10-26T02:25:34;0.73;;;0.73;;
5209;SDS011;2624;48.048;11.706;2022-10-26T02:30:41;3.60;;;0.70;;
5209;SDS011;2624;48.048;11.706;2022-10-26T02:35:49;7.30;;;0.70;;
5209;SDS011;2624;48.048;11.706;2022-10-26T02:40:52;1.80;;;1.00;;
5209;SDS011;2624;48.048;11.706;2022-10-26T02:45:56;4.10;;;0.70;;
5209;SDS011;2624;48.048;11.706;2022-10-26T02:51:06;0.60;;;0.60;;
5209;SDS011;2624;48.048;11.706;2022-10-26T02:56:13;1.23;;;1.00;;
5209;SDS011;2624;48.048;11.706;2022-10-26T03:01:18;0.90;;;0.70;;
5209;SDS011;2624;48.048;11.706;2022-10-26T03:06:22;1.93;;;0.80;;
5209;SDS011;2624;48.048;11.706;2022-10-26T03:11:24;0.70;;;0.70;;
5209;SDS011;2624;48.048;11.706;2022-10-26T03:16:26;1.03;;;0.70;;
5209;SDS011;2624;48.048;11.706;2022-10-26T03:21:29;0.60;;;0.60;;
5209;SDS011;2624;48.048;11.706;2022-10-26T03:26:31;1.23;;;0.60;;
5209;SDS011;2624;48.048;11.706;2022-10-26T03:31:33;5.80;;;0.73;;
5209;SDS011;2624;48.048;11.706;2022-10-26T03:36:36;0.83;;;0.73;;
5209;SDS011;2624;48.048;11.706;2022-10-26T03:41:38;0.90;;;0.90;;
5209;SDS011;2624;48.048;11.706;2022-10-26T03:46:40;0.90;;;0.90;;
5209;SDS011;2624;48.048;11.706;2022-10-26T03:51:43;0.70;;;0.70;;
5209;SDS011;2624;48.048;11.706;2022-10-26T03:56:44;0.60;;;0.60;;
5209;SDS011;2624;48.048;11.706;2022-10-26T04:01:46;0.57;;;0.57;;
5209;SDS011;2624;48.048;11.706;2022-10-26T04:06:49;0.80;;;0.80;;
5209;SDS011;2624;48.048;11.706;2022-10-26T04:11:51;0.73;;;0.67;;
5209;SDS011;2624;48.048;11.706;2022-10-26T04:16:53;0.63;;;0.63;;
5209;SDS011;2624;48.048;11.706;2022-10-26T04:21:56;0.57;;;0.57;;
5209;SDS011;2624;48.048;11.706;2022-10-26T04:26:58;0.60;;;0.60;;
5209;SDS011;2624;48.048;11.706;2022-10-26T04:32:00;0.50;;;0.50;;
5209;SDS011;2624;48.048;11.706;2022-10-26T04:37:03;2.53;;;0.70;;
5209;SDS011;2624;48.048;11.706;2022-10-26T04:42:05;2.00;;;0.60;;
5209;SDS011;2624;48.048;11.706;2022-10-26T04:47:07;4.83;;;0.80;;
5209;SDS011;2624;48.048;11.706;2022-10-26T04:52:10;1.10;;;0.73;;
5209;SDS011;2624;48.048;11.706;2022-10-26T04:57:12;0.70;;;0.70;;
5209;SDS011;2624;48.048;11.706;2022-10-26T05:02:13;0.70;;;0.70;;
5209;SDS011;2624;48.048;11.706;2022-10-26T05:07:16;0.70;;;0.70;;
5209;SDS011;2624;48.048;11.706;2022-10-26T05:12:18;0.90;;;0.90;;
5209;SDS011;2624;48.048;11.706;2022-10-26T05:17:20;7.20;;;0.80;;
5209;SDS011;2624;48.048;11.706;2022-10-26T05:22:23;0.70;;;0.70;;
5209;SDS011;2624;48.048;11.706;2022-10-26T05:27:25;0.40;;;0.40;;
5209;SDS011;2624;48.048;11.706;2022-10-26T05:32:27;2.13;;;0.97;;
5209;SDS011;2624;48.048;11.706;2022-10-26T05:37:30;2.30;;;0.70;;
5209;SDS011;2624;48.048;11.706;2022-10-26T05:42:32;0.70;;;0.70;;
5209;SDS011;2624;48.048;11.706;2022-10-26T05:47:36;2.63;;;0.90;;
5209;SDS011;2624;48.048;11.706;2022-10-26T05:52:40;2.50;;;0.90;;
5209;SDS011;2624;48.048;11.706;2022-10-26T05:57:42;6.50;;;0.90;;
5209;SDS011;2624;48.048;11.706;2022-10-26T06:02:48;0.97;;;0.93;;
5209;SDS011;2624;48.048;11.706;2022-10-26T06:08:00;4.70;;;1.30;;
5209;SDS011;2624;48.048;11.706;2022-10-26T06:13:03;1.77;;;1.00;;
5209;SDS011;2624;48.048;11.706;2022-10-26T06:18:06;2.47;;;1.23;;
5209;SDS011;2624;48.048;11.706;2022-10-26T06:23:23;3.23;;;1.10;;
5209;SDS011;2624;48.048;11.706;2022-10-26T06:28:39;2.97;;;1.33;;
5209;SDS011;2624;48.048;11.706;2022-10-26T06:33:47;1.63;;;0.80;;
5209;SDS011;2624;48.048;11.706;2022-10-26T06:38:51;1.97;;;1.10;;
5209;SDS011;2624;48.048;11.706;2022-10-26T06:43:58;0.80;;;0.70;;
5209;SDS011;2624;48.048;11.706;2022-10-26T06:49:04;6.53;;;0.83;;
5209;SDS011;2624;48.048;11.706;2022-10-26T06:54:14;0.90;;;0.90;;
5209;SDS011;2624;48.048;11.706;2022-10-26T06:59:29;0.77;;;0.70;;
5209;SDS011;2624;48.048;11.706;2022-10-26T07:04:36;1.27;;;0.67;;
5209;SDS011;2624;48.048;11.706;2022-10-26T07:09:40;1.10;;;0.90;;
5209;SDS011;2624;48.048;11.706;2022-10-26T07:14:41;0.77;;;0.77;;
5209;SDS011;2624;48.048;11.706;2022-10-26T07:19:43;0.80;;;0.80;;
5209;SDS011;2624;48.048;11.706;2022-10-26T07:24:46;0.73;;;0.70;;
5209;SDS011;2624;48.048;11.706;2022-10-26T07:29:50;3.80;;;0.97;;
5209;SDS011;2624;48.048;11.706;2022-10-26T07:34:52;0.90;;;0.83;;
5209;SDS011;2624;48.048;11.706;2022-10-26T07:39:55;4.87;;;1.20;;
5209;SDS011;2624;48.048;11.706;2022-10-26T07:44:57;3.70;;;1.13;;
5209;SDS011;2624;48.048;11.706;2022-10-26T07:49:59;0.73;;;0.70;;
5209;SDS011;2624;48.048;11.706;2022-10-26T07:55:02;6.47;;;1.03;;
5209;SDS011;2624;48.048;11.706;2022-10-26T08:00:05;1.47;;;0.73;;
5209;SDS011;2624;48.048;11.706;2022-10-26T08:05:08;0.80;;;0.80;;
5209;SDS011;2624;48.048;11.706;2022-10-26T08:10:11;0.80;;;0.80;;
5209;SDS011;2624;48.048;11.706;2022-10-26T08:15:14;3.53;;;1.60;;
5209;SDS011;2624;48.048;11.706;2022-10-26T08:20:16;0.73;;;0.73;;
5209;SDS011;2624;48.048;11.706;2022-10-26T08:25:20;2.70;;;0.97;;
5209;SDS011;2624;48.048;11.706;2022-10-26T08:30:21;3.23;;;1.00;;
5209;SDS011;2624;48.048;11.706;2022-10-26T08:35:23;0.90;;;0.80;;
5209;SDS011;2624;48.048;11.706;2022-10-26T08:40:27;1.00;;;1.00;;
5209;SDS011;2624;48.048;11.706;2022-10-26T08:45:32;1.37;;;0.87;;
5209;SDS011;2624;48.048;11.706;2022-10-26T08:50:39;1.30;;;1.20;;
5209;SDS011;2624;48.048;11.706;2022-10-26T08:55:46;2.77;;;1.10;;
5209;SDS011;2624;48.048;11.706;2022-10-26T09:00:52;3.33;;;1.40;;
5209;SDS011;2624;48.048;11.706;2022-10-26T09:05:58;1.70;;;1.30;;
5209;SDS011;2624;48.048;11.706;2022-10-26T09:11:20;6.73;;;1.17;;
5209;SDS011;2624;48.048;11.706;2022-10-26T09:16:32;2.30;;;1.40;;
5209;SDS011;2624;48.048;11.706;2022-10-26T09:21:46;2.10;;;1.40;;
5209;SDS011;2624;48.048;11.706;2022-10-26T09:26:55;2.40;;;1.37;;
5209;SDS011;2624;48.048;11.706;2022-10-26T09:32:03;4.63;;;1.00;;
5209;SDS011;2624;48.048;11.706;2022-10-26T09:37:14;1.10;;;1.00;;
5209;SDS011;2624;48.048;11.706;2022-10-26T09:42:21;0.90;;;0.90;;
5209;SDS011;2624;48.048;11.706;2022-10-26T09:47:29;4.00;;;1.13;;
5209;SDS011;2624;48.048;11.706;2022-10-26T09:52:34;1.20;;;1.10;;
5209;SDS011;2624;48.048;11.706;2022-10-26T09:57:39;2.23;;;0.77;;
5209;SDS011;2624;48.048;11.706;2022-10-26T10:02:44;1.17;;;1.10;;
5209;SDS011;2624;48.048;11.706;2022-10-26T10:07:50;4.30;;;2.03;;
5209;SDS011;2624;48.048;11.706;2022-10-26T10:12:53;6.03;;;1.03;;
5209;SDS011;2624;48.048;11.706;2022-10-26T10:17:55;0.80;;;0.80;;
5209;SDS011;2624;48.048;11.706;2022-10-26T10:23:00;0.90;;;0.90;;
5209;SDS011;2624;48.048;11.706;2022-10-26T10:28:18;2.43;;;1.23;;
5209;SDS011;2624;48.048;11.706;2022-10-26T10:33:21;1.23;;;1.03;;
5209;SDS011;2624;48.048;11.706;2022-10-26T10:38:23;2.93;;;1.00;;
5209;SDS011;2624;48.048;11.706;2022-10-26T10:43:26;1.23;;;0.90;;
5209;SDS011;2624;48.048;11.706;2022-10-26T10:48:28;1.00;;;1.00;;
5209;SDS011;2624;48.048;11.706;2022-10-26T10:53:33;3.13;;;0.90;;
5209;SDS011;2624;48.048;11.706;2022-10-26T10:58:41;1.07;;;0.90;;
5209;SDS011;2624;48.048;11.706;2022-10-26T11:04:02;4.40;;;1.33;;
5209;SDS011;2624;48.048;11.706;2022-10-26T11:09:33;0.90;;;0.90;;
5209;SDS011;2624;48.048;11.706;2022-10-26T11:14:41;2.10;;;1.37;;
5209;SDS011;2624;48.048;11.706;2022-10-26T11:19:47;1.03;;;0.97;;
5209;SDS011;2624;48.048;11.706;2022-10-26T11:24:55;6.10;;;0.80;;
5209;SDS011;2624;48.048;11.706;2022-10-26T11:30:04;1.33;;;0.70;;
5209;SDS011;2624;48.048;11.706;2022-10-26T11:35:10;7.10;;;1.20;;
5209;SDS011;2624;48.048;11.706;2022-10-26T11:40:27;2.53;;;0.97;;
5209;SDS011;2624;48.048;11.706;2022-10-26T11:45:36;2.40;;;2.00;;
5209;SDS011;2624;48.048;11.706;2022-10-26T11:50:42;2.47;;;1.30;;
5209;SDS011;2624;48.048;11.706;2022-10-26T11:55:48;3.03;;;1.43;;
5209;SDS011;2624;48.048;11.706;2022-10-26T12:00:54;2.83;;;1.50;;
5209;SDS011;2624;48.048;11.706;2022-10-26T12:06:00;4.27;;;1.23;;
5209;SDS011;2624;48.048;11.706;2022-10-26T12:11:04;3.50;;;0.90;;
5209;SDS011;2624;48.048;11.706;2022-10-26T12:16:12;6.83;;;1.33;;
5209;SDS011;2624;48.048;11.706;2022-10-26T12:21:23;2.00;;;1.10;;
5209;SDS011;2624;48.048;11.706;2022-10-26T12:31:51;2.63;;;1.50;;
5209;SDS011;2624;48.048;11.706;2022-10-26T12:42:27;2.37;;;1.30;;
5209;SDS011;2624;48.048;11.706;2022-10-26T12:53:04;1.77;;;1.20;;
5209;SDS011;2624;48.048;11.706;2022-10-26T12:58:21;3.07;;;2.10;;
5209;SDS011;2624;48.048;11.706;2022-10-26T13:03:45;11.73;;;1.63;;
5209;SDS011;2624;48.048;11.706;2022-10-26T13:08:56;6.83;;;2.00;;
5209;SDS011;2624;48.048;11.706;2022-10-26T13:13:59;2.40;;;1.80;;
5209;SDS011;2624;48.048;11.706;2022-10-26T13:19:04;2.47;;;1.70;;
5209;SDS011;2624;48.048;11.706;2022-10-26T13:24:23;9.50;;;1.57;;
5209;SDS011;2624;48.048;11.706;2022-10-26T13:29:28;6.77;;;1.70;;
5209;SDS011;2624;48.048;11.706;2022-10-26T13:34:31;2.67;;;1.70;;
5209;SDS011;2624;48.048;11.706;2022-10-26T13:39:34;4.80;;;1.47;;
5209;SDS011;2624;48.048;11.706;2022-10-26T13:44:40;3.67;;;1.73;;
5209;SDS011;2624;48.048;11.706;2022-10-26T13:49:47;3.83;;;1.60;;
5209;SDS011;2624;48.048;11.706;2022-10-26T13:54:53;4.07;;;1.93;;
5209;SDS011;2624;48.048;11.706;2022-10-26T13:59:58;6.47;;;1.87;;
5209;SDS011;2624;48.048;11.706;2022-10-26T14:05:04;4.20;;;2.30;;
5209;SDS011;2624;48.048;11.706;2022-10-26T14:10:06;4.03;;;2.40;;
5209;SDS011;2624;48.048;11.706;2022-10-26T14:15:22;5.33;;;2.07;;
5209;SDS011;2624;48.048;11.706;2022-10-26T14:20:27;11.40;;;2.60;;
5209;SDS011;2624;48.048;11.706;2022-10-26T14:25:31;7.03;;;1.93;;
5209;SDS011;2624;48.048;11.706;2022-10-26T14:30:32;9.93;;;2.07;;
5209;SDS011;2624;48.048;11.706;2022-10-26T14:35:35;4.90;;;2.80;;
5209;SDS011;2624;48.048;11.706;2022-10-26T14:40:41;10.73;;;2.00;;
5209;SDS011;2624;48.048;11.706;2022-10-26T14:45:45;10.40;;;3.67;;
5209;SDS011;2624;48.048;11.706;2022-10-26T14:51:00;6.37;;;2.70;;
5209;SDS011;2624;48.048;11.706;2022-10-26T14:56:21;22.00;;;4.83;;
5209;SDS011;2624;48.048;11.706;2022-10-26T15:01:28;2.30;;;2.10;;
5209;SDS011;2624;48.048;11.706;2022-10-26T15:06:35;6.13;;;2.80;;
5209;SDS011;2624;48.048;11.706;2022-10-26T15:11:47;9.13;;;3.03;;
5209;SDS011;2624;48.048;11.706;2022-10-26T15:16:49;8.00;;;2.87;;
5209;SDS011;2624;48.048;11.706;2022-10-26T15:21:55;5.57;;;2.07;;
5209;SDS011;2624;48.048;11.706;2022-10-26T15:26:57;7.73;;;1.70;;
5209;SDS011;2624;48.048;11.706;2022-10-26T15:32:00;6.20;;;2.40;;
5209;SDS011;2624;48.048;11.706;2022-10-26T15:37:04;5.20;;;2.30;;
5209;SDS011;2624;48.048;11.706;2022-10-26T15:42:06;14.70;;;2.17;;
5209;SDS011;2624;48.048;11.706;2022-10-26T15:47:15;6.23;;;2.20;;
5209;SDS011;2624;48.048;11.706;2022-10-26T15:52:20;5.50;;;2.57;;
5209;SDS011;2624;48.048;11.706;2022-10-26T15:57:22;5.37;;;1.73;;
5209;SDS011;2624;48.048;11.706;2022-10-26T16:02:25;12.63;;;2.40;;
5209;SDS011;2624;48.048;11.706;2022-10-26T16:07:29;4.07;;;2.40;;
5209;SDS011;2624;48.048;11.706;2022-10-26T16:12:31;2.00;;;1.90;;
5209;SDS011;2624;48.048;11.706;2022-10-26T16:17:32;3.87;;;3.57;;
5209;SDS011;2624;48.048;11.706;2022-10-26T16:22:36;5.80;;;2.80;;
5209;SDS011;2624;48.048;11.706;2022-10-26T16:27:39;4.60;;;2.50;;
5209;SDS011;2624;48.048;11.706;2022-10-26T16:32:41;8.23;;;2.30;;
5209;SDS011;2624;48.048;11.706;2022-10-26T16:37:44;3.07;;;2.50;;
5209;SDS011;2624;48.048;11.706;2022-10-26T16:42:46;5.13;;;2.57;;
5209;SDS011;2624;48.048;11.706;2022-10-26T16:47:48;8.50;;;2.90;;
5209;SDS011;2624;48.048;11.706;2022-10-26T16:52:51;8.80;;;2.30;;
5209;SDS011;2624;48.048;11.706;2022-10-26T16:57:53;8.83;;;1.90;;
5209;SDS011;2624;48.048;11.706;2022-10-26T17:02:54;4.17;;;2.13;;
5209;SDS011;2624;48.048;11.706;2022-10-26T17:07:58;5.20;;;1.50;;
5209;SDS011;2624;48.048;11.706;2022-10-26T17:12:59;6.70;;;2.43;;
5209;SDS011;2624;48.048;11.706;2022-10-26T17:18:03;7.13;;;2.10;;
5209;SDS011;2624;48.048;11.706;2022-10-26T17:23:06;41.37;;;17.10;;
5209;SDS011;2624;48.048;11.706;2022-10-26T17:28:08;21.20;;;8.83;;
5209;SDS011;2624;48.048;11.706;2022-10-26T17:33:09;12.07;;;2.90;;
5209;SDS011;2624;48.048;11.706;2022-10-26T17:38:12;4.37;;;4.07;;
5209;SDS011;2624;48.048;11.706;2022-10-26T17:43:14;7.07;;;4.30;;
5209;SDS011;2624;48.048;11.706;2022-10-26T17:48:16;5.40;;;3.87;;
5209;SDS011;2624;48.048;11.706;2022-10-26T17:53:19;8.20;;;3.23;;
5209;SDS011;2624;48.048;11.706;2022-10-26T17:58:21;5.03;;;2.83;;
5209;SDS011;2624;48.048;11.706;2022-10-26T18:03:23;9.30;;;2.30;;
5209;SDS011;2624;48.048;11.706;2022-10-26T18:08:27;4.30;;;2.30;;
5209;SDS011;2624;48.048;11.706;2022-10-26T18:13:30;3.20;;;2.10;;
5209;SDS011;2624;48.048;11.706;2022-10-26T18:18:33;8.10;;;2.47;;
5209;SDS011;2624;48.048;11.706;2022-10-26T18:23:37;8.47;;;3.33;;
5209;SDS011;2624;48.048;11.706;2022-10-26T18:28:39;9.67;;;4.47;;
5209;SDS011;2624;48.048;11.706;2022-10-26T18:33:41;6.30;;;4.60;;
5209;SDS011;2624;48.048;11.706;2022-10-26T18:38:46;14.73;;;4.40;;
5209;SDS011;2624;48.048;11.706;2022-10-26T18:43:48;3.97;;;3.63;;
5209;SDS011;2624;48.048;11.706;2022-10-26T18:48:52;8.83;;;5.37;;
5209;SDS011;2624;48.048;11.706;2022-10-26T18:53:55;7.63;;;5.40;;
5209;SDS011;2624;48.048;11.706;2022-10-26T18:58:58;7.70;;;4.03;;
5209;SDS011;2624;48.048;11.706;2022-10-26T19:04:01;7.97;;;3.00;;
5209;SDS011;2624;48.048;11.706;2022-10-26T19:09:05;3.07;;;2.73;;
5209;SDS011;2624;48.048;11.706;2022-10-26T19:14:09;2.90;;;2.70;;
5209;SDS011;2624;48.048;11.706;2022-10-26T19:19:12;11.03;;;3.27;;
5209;SDS011;2624;48.048;11.706;2022-10-26T19:24:17;22.67;;;2.93;;
5209;SDS011;2624;48.048;11.706;2022-10-26T19:29:20;5.20;;;2.53;;
5209;SDS011;2624;48.048;11.706;2022-10-26T19:34:22;9.60;;;2.83;;
5209;SDS011;2624;48.048;11.706;2022-10-26T19:39:26;2.50;;;1.83;;
5209;SDS011;2624;48.048;11.706;2022-10-26T19:44:28;6.23;;;2.40;;
5209;SDS011;2624;48.048;11.706;2022-10-26T19:49:30;3.70;;;1.80;;
5209;SDS011;2624;48.048;11.706;2022-10-26T19:54:33;4.23;;;2.47;;
5209;SDS011;2624;48.048;11.706;2022-10-26T19:59:35;2.80;;;2.40;;
5209;SDS011;2624;48.048;11.706;2022-10-26T20:04:37;1.93;;;1.80;;
5209;SDS011;2624;48.048;11.706;2022-10-26T20:09:41;3.60;;;2.10;;
5209;SDS011;2624;48.048;11.706;2022-10-26T20:14:43;5.50;;;2.10;;
5209;SDS011;2624;48.048;11.706;2022-10-26T20:19:45;4.20;;;2.37;;
5209;SDS011;2624;48.048;11.706;2022-10-26T20:24:48;5.53;;;2.20;;
5209;SDS011;2624;48.048;11.706;2022-10-26T20:29:50;5.40;;;2.20;;
5209;SDS011;2624;48.048;11.706;2022-10-26T20:34:52;1.77;;;1.67;;
5209;SDS011;2624;48.048;11.706;2022-10-26T20:39:55;2.70;;;1.80;;
5209;SDS011;2624;48.048;11.706;2022-10-26T20:45:00;3.07;;;1.70;;
5209;SDS011;2624;48.048;11.706;2022-10-26T20:50:08;7.23;;;1.63;;
5209;SDS011;2624;48.048;11.706;2022-10-26T20:55:14;2.17;;;2.00;;
5209;SDS011;2624;48.048;11.706;2022-10-26T21:00:23;4.20;;;2.20;;
5209;SDS011;2624;48.048;11.706;2022-10-26T21:05:25;2.77;;;2.57;;
5209;SDS011;2624;48.048;11.706;2022-10-26T21:10:30;3.57;;;3.00;;
5209;SDS011;2624;48.048;11.706;2022-10-26T21:15:33;5.17;;;2.53;;
5209;SDS011;2624;48.048;11.706;2022-10-26T21:20:36;10.40;;;2.33;;
5209;SDS011;2624;48.048;11.706;2022-10-26T21:25:39;3.90;;;2.77;;
5209;SDS011;2624;48.048;11.706;2022-10-26T21:30:41;3.37;;;2.03;;
5209;SDS011;2624;48.048;11.706;2022-10-26T21:35:50;4.47;;;2.67;;
5209;SDS011;2624;48.048;11.706;2022-10-26T21:41:01;4.97;;;2.60;;
5209;SDS011;2624;48.048;11.706;2022-10-26T21:46:04;3.53;;;1.97;;
5209;SDS011;2624;48.048;11.706;2022-10-26T21:51:07;6.27;;;2.37;;
5209;SDS011;2624;48.048;11.706;2022-10-26T21:56:15;3.23;;;2.00;;
5209;SDS011;2624;48.048;11.706;2022-10-26T22:01:19;10.23;;;2.63;;
5209;SDS011;2624;48.048;11.706;2022-10-26T22:06:22;4.80;;;2.03;;
5209;SDS011;2624;48.048;11.706;2022-10-26T22:11:25;4.63;;;1.90;;
5209;SDS011;2624;48.048;11.706;2022-10-26T22:16:27;7.33;;;2.10;;
5209;SDS011;2624;48.048;11.706;2022-10-26T22:21:31;2.80;;;2.07;;
5209;SDS011;2624;48.048;11.706;2022-10-26T22:26:36;3.03;;;2.30;;
5209;SDS011;2624;48.048;11.706;2022-10-26T22:31:38;6.17;;;3.13;;
5209;SDS011;2624;48.048;11.706;2022-10-26T22:36:40;3.20;;;1.47;;
5209;SDS011;2624;48.048;11.706;2022-10-26T22:41:44;3.07;;;1.90;;
5209;SDS011;2624;48.048;11.706;2022-10-26T22:46:47;5.90;;;1.93;;
5209;SDS011;2624;48.048;11.706;2022-10-26T22:51:49;6.67;;;2.93;;
5209;SDS011;2624;48.048;11.706;2022-10-26T22:56:52;4.77;;;2.37;;
5209;SDS011;2624;48.048;11.706;2022-10-26T23:01:55;9.23;;;1.97;;
5209;SDS011;2624;48.048;11.706;2022-10-26T23:06:57;10.53;;;2.57;;
5209;SDS011;2624;48.048;11.706;2022-10-26T23:12:00;9.47;;;2.17;;
5209;SDS011;2624;48.048;11.706;2022-10-26T23:17:02;1.87;;;1.73;;
5209;SDS011;2624;48.048;11.706;2022-10-26T23:22:05;6.10;;;2.03;;
5209;SDS011;2624;48.048;11.706;2022-10-26T23:27:08;16.70;;;6.67;;
5209;SDS011;2624;48.048;11.706;2022-10-26T23:32:10;12.00;;;5.20;;
5209;SDS011;2624;48.048;11.706;2022-10-26T23:37:11;10.77;;;4.90;;
5209;SDS011;2624;48.048;11.706;2022-10-26T23:42:15;5.23;;;2.50;;
5209;SDS011;2624;48.048;11.706;2022-10-26T23:47:17;6.23;;;2.90;;
5209;SDS011;2624;48.048;11.706;2022-10-26T23:52:18;4.67;;;1.93;;
5209;SDS011;2624;48.048;11.706;2022-10-26T23:57:22;2.67;;;1.70;;
